Time;durP1;ratioP1;P1;durP2;ratioP2;P2;SDS_P1;SDS_P2;PMS_P1;PMS_P2;Temp;Humidity;BMP_temperature;BMP_pressure;BME280_temperature;BME280_humidity;BME280_pressure;Samples;Min_cycle;Max_cycle;Signal;HPM_P1;HPM_P2
2021/12/13 00:01:21;;;;;;;34.37;17.40;;;;;;;9.01;85.21;101512.75;5058653;28;20155;-73
2021/12/13 00:03:55;;;;;;;35.00;17.83;;;;;;;9.23;84.28;101519.94;5052915;28;20194;-73
2021/12/13 00:06:28;;;;;;;34.40;18.17;;;;;;;9.22;84.40;101535.06;5056829;28;20601;-73
2021/12/13 00:08:55;;;;;;;35.07;17.23;;;;;;;9.00;85.51;101521.66;5053073;28;20667;-72
2021/12/13 00:11:24;;;;;;;39.23;18.67;;;;;;;9.34;84.62;101528.44;5052767;28;20172;-72
2021/12/13 00:13:55;;;;;;;35.97;17.97;;;;;;;9.18;84.69;101522.78;5052829;28;20185;-73
2021/12/13 00:16:30;;;;;;;36.37;18.87;;;;;;;9.65;84.03;101530.78;5052737;28;20560;-72
2021/12/13 00:18:59;;;;;;;42.33;18.77;;;;;;;9.29;84.28;101525.94;5052878;28;20237;-71
2021/12/13 00:21:33;;;;;;;38.77;18.80;;;;;;;9.33;84.24;101526.69;5052624;28;20186;-72
2021/12/13 00:24:02;;;;;;;37.23;17.67;;;;;;;9.37;84.57;101538.97;5052614;28;20152;-72
2021/12/13 00:26:34;;;;;;;41.30;19.40;;;;;;;9.27;84.68;101526.91;5053582;28;20207;-72
2021/12/13 00:29:09;;;;;;;38.80;18.37;;;;;;;9.27;85.13;101537.53;5052392;28;20210;-71
2021/12/13 00:31:44;;;;;;;36.60;18.57;;;;;;;9.08;85.25;101540.88;5052539;28;20209;-72
2021/12/13 00:34:19;;;;;;;36.07;19.13;;;;;;;8.99;85.85;101527.03;5053613;28;20175;-73
2021/12/13 00:36:48;;;;;;;42.80;19.43;;;;;;;8.99;85.93;101533.22;5052922;28;20227;-74
2021/12/13 00:39:22;;;;;;;33.77;17.67;;;;;;;9.03;86.35;101534.84;5052719;28;20171;-71
2021/12/13 00:41:49;;;;;;;35.67;19.33;;;;;;;9.40;84.96;101530.88;5052367;28;20159;-72
2021/12/13 00:44:18;;;;;;;38.50;18.97;;;;;;;9.14;85.25;101528.28;5052698;28;20183;-72
2021/12/13 00:46:45;;;;;;;34.00;17.30;;;;;;;9.52;84.54;101540.19;5052872;28;20198;-71
2021/12/13 00:49:12;;;;;;;43.67;19.47;;;;;;;9.43;85.05;101537.88;5038693;28;20249;-73
2021/12/13 00:51:44;;;;;;;35.87;18.20;;;;;;;9.30;85.37;101543.66;5041611;28;20210;-72
2021/12/13 00:54:18;;;;;;;39.23;19.17;;;;;;;9.51;84.56;101531.31;5057817;28;20572;-71
2021/12/13 00:56:49;;;;;;;31.40;17.53;;;;;;;9.28;84.97;101532.16;5058892;28;20646;-71
2021/12/13 00:59:36;;;;;;;43.30;19.03;;;;;;;9.65;85.02;101560.97;5039996;28;20190;-72
2021/12/13 01:02:06;;;;;;;48.47;19.43;;;;;;;9.65;84.90;101552.13;5058849;28;20238;-71
2021/12/13 01:04:56;;;;;;;35.07;18.87;;;;;;;9.48;84.08;101536.78;5075978;28;20205;-71
2021/12/13 01:07:33;;;;;;;40.13;18.53;;;;;;;9.56;83.88;101550.69;5078123;28;20278;-72
2021/12/13 01:10:20;;;;;;;40.30;18.33;;;;;;;9.23;86.30;101551.91;5077807;28;20191;-72
2021/12/13 01:12:48;;;;;;;38.10;19.10;;;;;;;9.12;86.11;101565.63;5072796;28;20172;-72
2021/12/13 01:15:27;;;;;;;37.77;17.83;;;;;;;9.27;85.84;101565.06;5057190;28;20187;-74
2021/12/13 01:18:00;;;;;;;42.03;18.93;;;;;;;9.31;85.84;101582.69;5040581;28;20163;-72
2021/12/13 01:20:57;;;;;;;38.47;18.90;;;;;;;9.44;85.36;101566.25;5055591;28;20168;-73
2021/12/13 01:23:48;;;;;;;40.83;19.20;;;;;;;9.26;84.94;101560.66;5055928;28;20237;-72
2021/12/13 01:28:50;;;;;;;37.97;18.83;;;;;;;9.73;84.70;101581.19;5055718;28;20206;-72
2021/12/13 01:31:19;;;;;;;38.27;19.43;;;;;;;9.72;84.06;101593.63;5055882;28;20314;-72
2021/12/13 01:33:46;;;;;;;36.30;18.53;;;;;;;9.33;85.03;101575.53;5038702;28;20187;-73
2021/12/13 01:36:17;;;;;;;32.77;18.37;;;;;;;9.54;84.63;101586.31;5056325;28;20204;-72
2021/12/13 01:38:50;;;;;;;36.47;19.03;;;;;;;9.51;85.12;101589.94;5039140;28;20202;-73
2021/12/13 01:41:43;;;;;;;44.27;18.33;;;;;;;9.57;85.18;101591.53;5055342;28;20206;-73
2021/12/13 01:44:12;;;;;;;41.13;18.77;;;;;;;9.63;84.19;101583.28;5054602;28;20346;-73
2021/12/13 01:46:41;;;;;;;36.93;18.73;;;;;;;9.50;84.97;101584.69;5056212;28;20195;-73
2021/12/13 01:49:08;;;;;;;39.07;19.30;;;;;;;9.70;84.31;101588.38;5054878;28;20211;-72
2021/12/13 01:51:34;;;;;;;37.10;18.33;;;;;;;9.73;84.60;101583.84;5055032;28;20258;-72
2021/12/13 01:54:04;;;;;;;34.97;17.90;;;;;;;10.00;83.73;101593.44;5054942;28;20180;-73
2021/12/13 01:59:16;;;;;;;46.17;18.73;;;;;;;10.11;83.22;101593.06;5056232;28;20160;-73
2021/12/13 02:01:43;;;;;;;33.33;17.80;;;;;;;10.06;83.01;101587.03;5055744;28;20560;-74
2021/12/13 02:04:13;;;;;;;38.53;18.50;;;;;;;9.81;83.36;101584.41;5038052;28;20222;-73
2021/12/13 02:06:40;;;;;;;37.00;17.97;;;;;;;9.98;82.41;101589.97;5054769;28;20213;-72
2021/12/13 02:09:22;;;;;;;38.10;18.57;;;;;;;9.96;82.58;101592.69;5054642;28;20171;-72
2021/12/13 02:11:51;;;;;;;34.47;18.07;;;;;;;10.03;82.73;101599.56;5037953;28;20578;-73
2021/12/13 02:14:19;;;;;;;38.77;18.47;;;;;;;9.92;82.61;101583.06;5054545;28;20632;-71
2021/12/13 02:16:57;;;;;;;37.17;18.13;;;;;;;9.91;83.30;101594.66;5054634;28;20779;-72
2021/12/13 02:19:32;;;;;;;33.57;18.50;;;;;;;9.83;82.91;101602.09;5039407;28;20171;-71
2021/12/13 02:22:15;;;;;;;36.57;18.67;;;;;;;9.63;83.99;101594.81;5037990;28;20199;-72
2021/12/13 02:24:41;;;;;;;38.97;18.77;;;;;;;9.73;84.12;101599.84;5054332;28;20207;-73
2021/12/13 02:27:07;;;;;;;38.20;18.30;;;;;;;9.84;82.94;101582.50;5054697;28;20246;-72
2021/12/13 02:29:37;;;;;;;34.00;17.60;;;;;;;9.85;82.90;101589.56;5037605;28;20222;-72
2021/12/13 02:32:09;;;;;;;37.40;18.33;;;;;;;9.91;83.27;101586.66;5054509;28;20166;-72
2021/12/13 02:34:37;;;;;;;34.93;18.37;;;;;;;9.73;83.54;101583.84;5037757;28;20570;-72
2021/12/13 02:37:03;;;;;;;38.90;18.07;;;;;;;9.90;83.28;101595.59;5053957;28;20639;-72
2021/12/13 02:39:36;;;;;;;32.77;17.53;;;;;;;9.62;84.03;101590.41;5055543;28;20163;-71
2021/12/13 02:42:06;;;;;;;31.73;17.03;;;;;;;9.77;84.35;101601.47;5054270;28;20650;-72
2021/12/13 02:44:38;;;;;;;30.70;16.33;;;;;;;9.81;84.04;101603.09;5053902;28;20176;-73
2021/12/13 02:47:09;;;;;;;35.10;17.90;;;;;;;9.92;83.57;101600.88;5054248;28;20213;-72
2021/12/13 02:49:37;;;;;;;39.17;18.30;;;;;;;9.82;83.76;101591.50;5037530;28;20199;-73
2021/12/13 02:52:05;;;;;;;33.17;17.67;;;;;;;9.84;83.00;101598.50;5053840;28;20179;-72
2021/12/13 02:54:38;;;;;;;36.17;17.73;;;;;;;9.77;84.04;101601.47;5054014;28;20658;-73
2021/12/13 02:57:11;;;;;;;32.10;17.20;;;;;;;9.75;83.50;101592.66;5054257;28;20168;-72
2021/12/13 02:59:39;;;;;;;39.30;17.23;;;;;;;9.88;83.34;101593.91;5055353;28;20158;-72
2021/12/13 03:02:14;;;;;;;30.53;15.80;;;;;;;9.99;83.31;101602.38;5053887;28;20553;-72
2021/12/13 03:04:40;;;;;;;33.27;17.50;;;;;;;9.71;83.83;101595.44;5036999;28;20167;-72
2021/12/13 03:07:16;;;;;;;32.53;16.23;;;;;;;10.10;82.82;101607.31;5053865;28;20659;-72
2021/12/13 03:09:43;;;;;;;29.37;16.83;;;;;;;9.88;82.98;101605.44;5054182;28;20214;-72
2021/12/13 03:12:12;;;;;;;32.60;17.50;;;;;;;9.98;83.66;101606.84;5042139;28;20176;-73
2021/12/13 03:14:42;;;;;;;33.03;17.07;;;;;;;9.94;83.35;101609.69;5058662;28;20561;-73
2021/12/13 03:17:13;;;;;;;33.57;16.60;;;;;;;9.81;83.86;101614.63;5061166;28;20179;-73
2021/12/13 03:19:41;;;;;;;31.97;16.80;;;;;;;9.89;83.76;101601.00;5044554;28;20625;-72
2021/12/13 03:22:41;;;;;;;31.27;16.57;;;;;;;10.22;82.41;101613.06;5055086;28;20278;-73
2021/12/13 03:25:44;;;;;;;32.00;16.07;;;;;;;10.08;82.62;101602.03;5036875;28;20210;-73
2021/12/13 03:28:20;;;;;;;26.43;14.93;;;;;;;10.15;83.37;101616.88;5053348;28;20211;-72
2021/12/13 03:31:08;;;;;;;31.13;16.60;;;;;;;10.03;83.47;101604.00;5053907;28;20191;-73
2021/12/13 03:33:48;;;;;;;29.70;15.77;;;;;;;10.08;83.72;101620.72;5036743;28;20164;-72
2021/12/13 03:36:15;;;;;;;30.63;15.77;;;;;;;9.92;84.08;101608.88;5036342;28;20194;-72
2021/12/13 03:38:46;;;;;;;28.10;16.13;;;;;;;10.21;82.98;101619.34;5053441;28;20203;-72
2021/12/13 03:41:16;;;;;;;38.13;17.10;;;;;;;10.09;84.38;101626.91;5036450;28;20175;-72
2021/12/13 03:44:04;;;;;;;35.10;16.80;;;;;;;10.12;83.08;101609.00;5036035;28;20257;-72
2021/12/13 03:46:32;;;;;;;36.23;17.10;;;;;;;10.30;83.44;101628.78;5036018;28;20218;-73
2021/12/13 03:48:59;;;;;;;29.20;15.83;;;;;;;10.06;84.10;101632.38;5036022;28;20274;-73
2021/12/13 03:51:32;;;;;;;29.30;15.37;;;;;;;10.17;83.65;101628.34;5036260;28;20175;-72
2021/12/13 03:53:58;;;;;;;29.90;14.97;;;;;;;9.64;84.40;101609.03;5053236;28;20254;-72
2021/12/13 03:56:28;;;;;;;26.73;14.10;;;;;;;10.16;84.16;101637.28;5053181;28;20706;-72
2021/12/13 03:59:04;;;;;;;30.37;15.50;;;;;;;10.19;84.29;101631.81;5052917;28;20184;-71
2021/12/13 04:01:36;;;;;;;28.80;15.37;;;;;;;10.23;84.28;101630.81;5036655;28;20168;-73
2021/12/13 04:04:04;;;;;;;32.20;15.33;;;;;;;10.14;83.68;101622.28;5052731;28;20167;-72
2021/12/13 04:06:29;;;;;;;29.93;15.87;;;;;;;10.07;84.15;101631.44;5052510;28;20195;-73
2021/12/13 04:08:56;;;;;;;31.37;15.77;;;;;;;10.14;83.37;101636.47;5052468;28;20199;-73
2021/12/13 04:11:24;;;;;;;28.70;15.97;;;;;;;10.53;83.60;101642.09;5036036;28;20556;-73
2021/12/13 04:14:00;;;;;;;27.77;16.37;;;;;;;10.43;83.10;101646.06;5053096;28;20258;-73
2021/12/13 04:16:47;;;;;;;33.03;16.73;;;;;;;9.98;83.86;101633.50;5036491;28;20187;-73
2021/12/13 04:19:17;;;;;;;28.50;15.70;;;;;;;9.99;84.90;101650.38;5037334;28;20210;-75
2021/12/13 04:21:48;;;;;;;35.90;16.73;;;;;;;10.28;84.30;101650.19;5053867;28;20540;-73
2021/12/13 04:24:19;;;;;;;36.80;18.97;;;;;;;10.19;84.34;101657.63;5041496;28;20183;-73
2021/12/13 04:26:50;;;;;;;40.23;22.50;;;;;;;10.20;84.19;101646.94;5057742;28;20207;-73
2021/12/13 04:29:21;;;;;;;34.07;18.10;;;;;;;10.55;83.54;101650.91;5043304;28;20166;-73
2021/12/13 04:31:47;;;;;;;35.57;18.43;;;;;;;10.55;82.86;101653.56;5059134;28;20156;-73
2021/12/13 04:34:12;;;;;;;36.43;18.27;;;;;;;10.35;83.36;101642.78;5056629;28;20615;-73
2021/12/13 04:36:41;;;;;;;41.43;17.90;;;;;;;10.76;82.64;101666.97;5035689;28;20191;-73
2021/12/13 04:39:15;;;;;;;35.83;17.67;;;;;;;10.49;82.36;101651.16;5035781;28;20640;-73
2021/12/13 04:41:53;;;;;;;36.23;16.97;;;;;;;10.56;82.93;101649.09;5052928;28;20162;-73
2021/12/13 04:44:33;;;;;;;31.30;16.70;;;;;;;10.64;82.23;101649.66;5035585;28;20178;-73
2021/12/13 04:47:11;;;;;;;29.70;16.53;;;;;;;10.89;82.40;101666.44;5052235;28;20198;-71
2021/12/13 04:49:42;;;;;;;35.70;16.70;;;;;;;10.68;82.34;101643.25;5035429;28;20156;-72
2021/12/13 04:52:11;;;;;;;35.63;16.80;;;;;;;10.72;81.73;101649.34;5052244;28;20190;-74
2021/12/13 04:54:40;;;;;;;38.27;17.70;;;;;;;10.67;82.60;101651.34;5051777;28;20218;-73
2021/12/13 04:57:07;;;;;;;38.87;17.10;;;;;;;10.62;82.34;101643.50;5035436;28;20171;-73
2021/12/13 04:59:33;;;;;;;30.43;16.57;;;;;;;10.76;81.95;101653.63;5035268;28;20281;-71
2021/12/13 05:02:00;;;;;;;40.97;16.10;;;;;;;10.70;82.61;101653.88;5052967;28;20188;-72
2021/12/13 05:04:29;;;;;;;36.17;17.83;;;;;;;10.60;82.14;101662.25;5035850;28;20254;-72
2021/12/13 05:06:58;;;;;;;41.00;18.03;;;;;;;10.73;82.20;101670.63;5057398;28;20187;-73
2021/12/13 05:09:24;;;;;;;31.70;17.23;;;;;;;10.55;83.20;101677.59;5058062;28;20567;-73
2021/12/13 05:11:55;;;;;;;33.20;17.07;;;;;;;10.75;82.15;101674.13;5057633;28;20263;-74
2021/12/13 05:14:36;;;;;;;35.33;17.67;;;;;;;10.74;82.03;101672.38;5058433;28;20160;-74
2021/12/13 05:17:10;;;;;;;33.80;17.57;;;;;;;10.77;81.31;101674.91;5042352;28;20274;-74
2021/12/13 05:19:40;;;;;;;35.70;18.80;;;;;;;10.67;82.29;101678.91;5037900;28;20353;-73
2021/12/13 05:22:08;;;;;;;38.37;18.97;;;;;;;10.76;81.93;101678.53;5052346;28;20694;-72
2021/12/13 05:24:44;;;;;;;35.13;18.83;;;;;;;10.90;82.49;101700.22;5051905;28;20632;-74
2021/12/13 05:27:13;;;;;;;41.63;19.53;;;;;;;10.86;81.80;101682.59;5052786;28;20163;-73
2021/12/13 05:29:45;;;;;;;40.93;20.37;;;;;;;10.87;82.19;101695.00;5035477;28;20229;-73
2021/12/13 05:32:15;;;;;;;41.90;20.40;;;;;;;10.79;81.76;101685.56;5051787;28;20180;-72
2021/12/13 05:34:52;;;;;;;46.17;22.53;;;;;;;10.96;82.08;101691.94;5052248;28;20164;-73
2021/12/13 05:37:18;;;;;;;38.23;17.43;;;;;;;10.82;81.10;101675.63;5055533;28;20294;-72
2021/12/13 05:39:59;;;;;;;36.10;16.30;;;;;;;10.95;81.67;101690.22;5055165;28;20194;-72
2021/12/13 05:42:34;;;;;;;46.93;18.87;;;;;;;11.12;81.02;101700.19;5038708;28;20262;-73
2021/12/13 05:45:00;;;;;;;39.90;19.17;;;;;;;10.88;81.09;101674.50;5058047;28;20226;-73
2021/12/13 05:47:27;;;;;;;40.20;19.00;;;;;;;11.03;81.51;101694.38;5056830;28;20211;-72
2021/12/13 05:49:53;;;;;;;41.90;17.90;;;;;;;11.13;80.91;101698.38;5038559;28;20589;-77
2021/12/13 05:52:24;;;;;;;38.10;17.53;;;;;;;10.99;80.67;101687.41;5054876;28;20179;-73
2021/12/13 05:54:52;;;;;;;41.03;17.67;;;;;;;10.94;81.63;101701.84;5054841;28;20685;-73
2021/12/13 05:57:22;;;;;;;43.93;17.23;;;;;;;10.78;81.47;101698.06;5038417;28;20206;-73
2021/12/13 05:59:51;;;;;;;40.13;17.17;;;;;;;11.09;80.94;101699.44;5038376;28;20202;-72
2021/12/13 06:02:19;;;;;;;37.30;17.47;;;;;;;10.89;81.59;101693.13;5055169;28;20622;-72
2021/12/13 06:04:55;;;;;;;42.97;17.53;;;;;;;10.97;81.05;101692.81;5038350;28;20266;-74
2021/12/13 06:07:24;;;;;;;46.13;18.73;;;;;;;10.93;81.59;101704.56;5038308;28;20642;-73
2021/12/13 06:09:56;;;;;;;39.23;16.60;;;;;;;11.01;80.69;101696.22;5054883;28;20232;-72
2021/12/13 06:12:28;;;;;;;52.20;21.37;;;;;;;10.76;81.81;101705.22;5038482;28;20216;-71
2021/12/13 06:14:54;;;;;;;42.33;17.67;;;;;;;10.77;81.74;101698.94;5038187;28;20203;-72
2021/12/13 06:17:29;;;;;;;43.00;18.67;;;;;;;10.82;81.91;101706.81;5055096;28;20171;-72
2021/12/13 06:19:58;;;;;;;37.17;16.63;;;;;;;11.08;81.02;101711.94;5037998;28;20242;-73
2021/12/13 06:22:26;;;;;;;41.37;17.50;;;;;;;11.16;80.70;101706.31;5038093;28;20266;-72
2021/12/13 06:27:30;;;;;;;59.53;17.47;;;;;;;11.22;80.54;101711.38;5077070;22;20235;-73
2021/12/13 06:30:09;;;;;;;245.57;23.40;;;;;;;10.99;80.65;101703.44;5054101;28;20604;-73
2021/12/13 06:32:38;;;;;;;42.33;16.10;;;;;;;11.08;80.69;101711.06;5070614;28;20210;-72
2021/12/13 06:35:41;;;;;;;190.47;21.30;;;;;;;10.96;80.84;101707.97;5037512;28;20176;-72
2021/12/13 06:38:35;;;;;;;41.97;14.97;;;;;;;11.00;81.15;101713.19;5054123;28;20207;-73
2021/12/13 06:41:06;;;;;;;45.43;14.97;;;;;;;10.91;81.46;101723.31;5054061;28;20262;-73
2021/12/13 06:43:46;;;;;;;94.37;16.83;;;;;;;10.90;81.15;101710.03;5054808;28;20217;-73
2021/12/13 06:46:49;;;;;;;328.10;25.07;;;;;;;10.59;82.29;101708.56;5053247;28;20694;-72
2021/12/13 06:49:22;;;;;;;39.40;13.97;;;;;;;10.88;81.95;101718.09;5054403;28;20233;-73
2021/12/13 06:52:01;;;;;;;63.60;14.37;;;;;;;11.09;81.32;101726.16;5037371;28;20210;-73
2021/12/13 06:54:28;;;;;;;225.97;19.80;;;;;;;11.02;81.11;101728.22;5054998;28;20170;-73
2021/12/13 06:57:24;;;;;;;83.73;16.60;;;;;;;11.08;81.70;101740.47;5055398;28;20207;-73
2021/12/13 06:59:59;;;;;;;68.37;15.37;;;;;;;11.05;81.57;101749.47;5053931;28;20196;-72
2021/12/13 07:02:26;;;;;;;78.73;15.57;;;;;;;10.94;81.41;101744.56;5053278;28;20254;-73
2021/12/13 07:04:59;;;;;;;224.83;20.97;;;;;;;10.88;81.28;101739.47;5036857;28;20178;-72
2021/12/13 07:07:40;;;;;;;253.53;20.73;;;;;;;10.87;81.38;101737.72;5053036;28;20206;-72
2021/12/13 07:10:11;;;;;;;146.30;18.53;;;;;;;10.77;81.34;101731.00;5053207;28;20160;-73
2021/12/13 07:12:44;;;;;;;87.83;16.07;;;;;;;10.84;81.72;101748.53;5053391;28;20648;-72
2021/12/13 07:15:25;;;;;;;54.83;14.93;;;;;;;11.06;81.56;101755.69;5053576;28;20167;-72
2021/12/13 07:18:07;;;;;;;151.67;17.90;;;;;;;11.04;81.40;101749.53;5053376;28;20242;-73
2021/12/13 07:20:43;;;;;;;83.50;16.30;;;;;;;10.94;81.36;101747.25;5052877;28;20274;-72
2021/12/13 07:23:09;;;;;;;226.23;19.40;;;;;;;10.36;82.48;101729.06;5054070;28;20228;-73
2021/12/13 07:25:37;;;;;;;330.30;23.17;;;;;;;10.55;82.98;101751.47;5052628;28;20211;-73
2021/12/13 07:28:04;;;;;;;489.30;27.80;;;;;;;10.15;83.89;101750.25;5053039;28;20629;-73
2021/12/13 07:30:30;;;;;;;67.90;17.50;;;;;;;10.82;82.01;101760.22;5052954;28;20171;-73
2021/12/13 07:32:58;;;;;;;128.40;17.80;;;;;;;10.95;81.74;101762.34;5054207;28;20176;-73
2021/12/13 07:35:35;;;;;;;133.43;19.17;;;;;;;10.87;81.93;101763.56;5052883;28;20198;-72
2021/12/13 07:38:04;;;;;;;87.20;17.70;;;;;;;10.60;82.54;101776.19;5053358;28;20174;-73
2021/12/13 07:40:53;;;;;;;55.13;17.50;;;;;;;11.02;81.67;101791.47;5053642;28;20524;-73
2021/12/13 07:43:27;;;;;;;41.47;16.10;;;;;;;10.73;82.62;101788.13;5052696;28;20218;-73
2021/12/13 07:46:24;;;;;;;58.33;15.13;;;;;;;10.71;82.07;101779.31;5035829;28;20245;-73
2021/12/13 07:48:54;;;;;;;42.90;14.37;;;;;;;10.55;82.75;101768.34;5052848;28;20164;-73
2021/12/13 07:51:29;;;;;;;57.33;14.67;;;;;;;10.57;83.69;101782.50;5052826;28;20156;-73
2021/12/13 07:53:57;;;;;;;61.80;16.10;;;;;;;10.74;83.14;101787.19;5053990;28;20516;-73
2021/12/13 07:56:29;;;;;;;45.67;14.57;;;;;;;10.59;83.25;101783.31;5055995;28;20191;-73
2021/12/13 07:59:10;;;;;;;38.67;13.90;;;;;;;10.91;82.04;101783.88;5052091;28;20186;-73
2021/12/13 08:01:49;;;;;;;124.27;17.83;;;;;;;11.03;82.14;101791.41;5052486;28;20237;-73
2021/12/13 08:04:18;;;;;;;94.10;14.90;;;;;;;10.80;82.11;101788.78;5052934;28;20493;-74
2021/12/13 08:06:47;;;;;;;36.53;11.70;;;;;;;11.07;81.88;101795.69;5053300;28;20210;-73
2021/12/13 08:09:16;;;;;;;36.97;12.07;;;;;;;10.96;81.64;101785.44;5053176;28;20643;-73
2021/12/13 08:11:48;;;;;;;103.53;12.93;;;;;;;11.16;81.25;101794.47;5053557;28;20539;-73
2021/12/13 08:14:14;;;;;;;56.53;12.07;;;;;;;10.95;81.40;101790.84;5053507;28;20171;-73
2021/12/13 08:16:46;;;;;;;312.23;18.40;;;;;;;10.92;81.95;101777.63;5051964;28;20221;-73
2021/12/13 08:19:16;;;;;;;305.77;18.13;;;;;;;10.79;81.95;101793.25;5052187;28;20254;-73
2021/12/13 08:21:45;;;;;;;230.57;15.93;;;;;;;10.62;82.84;101791.22;5035134;28;20627;-73
2021/12/13 08:24:25;;;;;;;147.57;13.13;;;;;;;10.88;81.94;101800.03;5052196;28;20186;-74
2021/12/13 08:26:57;;;;;;;276.90;16.27;;;;;;;10.68;82.24;101784.75;5051860;28;20206;-74
2021/12/13 08:29:29;;;;;;;61.30;9.70;;;;;;;10.62;82.06;101799.22;5051845;28;20686;-73
2021/12/13 08:31:56;;;;;;;66.63;8.73;;;;;;;10.62;83.49;101801.03;5051982;28;20156;-73
2021/12/13 08:34:25;;;;;;;132.70;11.57;;;;;;;10.63;82.23;101797.41;5051674;28;20179;-73
2021/12/13 08:36:52;;;;;;;61.20;7.53;;;;;;;10.60;82.22;101792.19;5051662;28;20191;-73
2021/12/13 08:39:25;;;;;;;269.67;15.97;;;;;;;10.74;83.29;101811.22;5053013;28;20212;-72
2021/12/13 08:42:09;;;;;;;53.60;8.47;;;;;;;10.83;83.04;101823.38;5051904;28;20156;-73
2021/12/13 08:44:39;;;;;;;99.90;10.23;;;;;;;10.29;84.38;101821.81;5052474;28;20167;-72
2021/12/13 08:47:15;;;;;;;68.63;13.80;;;;;;;10.89;82.66;101826.69;5052460;28;20202;-73
2021/12/13 08:49:44;;;;;;;40.50;9.50;;;;;;;10.93;82.70;101827.44;5051067;28;20163;-73
2021/12/13 08:52:13;;;;;;;69.17;12.30;;;;;;;10.68;83.47;101815.94;5051597;28;20210;-72
2021/12/13 08:54:44;;;;;;;87.30;9.57;;;;;;;10.73;83.26;101819.28;5051546;28;20179;-73
2021/12/13 08:57:27;;;;;;;118.23;10.07;;;;;;;10.42;83.23;101799.13;5052207;28;20679;-73
2021/12/13 08:59:53;;;;;;;69.77;8.67;;;;;;;10.40;82.64;101798.25;5051525;28;20203;-73
2021/12/13 09:02:21;;;;;;;125.63;10.27;;;;;;;10.90;82.65;101827.56;5051855;28;20207;-73
2021/12/13 09:05:06;;;;;;;202.80;13.13;;;;;;;10.81;82.88;101826.09;5035001;28;20711;-74
2021/12/13 09:07:31;;;;;;;162.93;12.97;;;;;;;10.61;84.07;101825.97;5051789;28;20225;-74
2021/12/13 09:09:57;;;;;;;92.90;9.37;;;;;;;10.90;82.16;101817.75;5053266;28;20571;-74
2021/12/13 09:12:44;;;;;;;52.77;8.63;;;;;;;11.02;82.04;101821.72;5056337;28;20202;-74
2021/12/13 09:15:22;;;;;;;333.73;16.33;;;;;;;11.10;81.73;101832.97;5056044;28;20160;-73
2021/12/13 09:17:50;;;;;;;336.00;16.97;;;;;;;10.78;83.11;101823.56;5056703;28;20202;-74
2021/12/13 09:20:22;;;;;;;212.37;13.53;;;;;;;10.98;82.29;101822.78;5055519;28;20195;-74
2021/12/13 09:22:55;;;;;;;54.33;8.40;;;;;;;10.78;82.78;101823.56;5056807;28;20178;-74
2021/12/13 09:25:44;;;;;;;113.07;10.27;;;;;;;11.34;81.91;101836.47;5056762;28;20597;-72
2021/12/13 09:28:26;;;;;;;229.13;12.53;;;;;;;10.59;82.16;101804.69;5055342;28;20188;-73
2021/12/13 09:31:26;;;;;;;95.97;9.47;;;;;;;11.19;81.14;101823.75;5038913;28;20210;-72
2021/12/13 09:33:59;;;;;;;79.90;9.30;;;;;;;10.95;82.40;101821.09;5055692;28;20262;-73
2021/12/13 09:36:30;;;;;;;58.60;8.73;;;;;;;11.43;81.92;101837.91;5055318;28;20191;-73
2021/12/13 09:39:23;;;;;;;116.80;10.33;;;;;;;11.01;81.49;101816.44;5057989;28;20491;-73
2021/12/13 09:42:15;;;;;;;54.53;9.00;;;;;;;11.00;82.26;101822.72;5057189;28;20321;-73
2021/12/13 09:44:55;;;;;;;142.33;11.63;;;;;;;10.68;82.56;101800.78;5059831;28;20171;-73
2021/12/13 09:47:33;;;;;;;431.73;21.53;;;;;;;10.86;82.55;101815.25;5060772;28;20694;-73
2021/12/13 09:49:58;;;;;;;147.73;10.80;;;;;;;10.99;81.73;101800.47;5042184;28;20187;-73
2021/12/13 09:52:30;;;;;;;154.37;10.87;;;;;;;11.01;81.89;101806.63;5060483;28;20168;-74
2021/12/13 09:55:08;;;;;;;110.73;10.97;;;;;;;11.16;81.81;101802.50;5038871;28;20176;-73
2021/12/13 09:58:06;;;;;;;399.13;17.70;;;;;;;11.01;82.69;101813.78;5054880;28;20167;-72
2021/12/13 10:00:41;;;;;;;70.13;8.93;;;;;;;11.25;82.01;101820.81;5037713;28;20678;-72
2021/12/13 10:03:15;;;;;;;351.57;17.07;;;;;;;10.93;82.39;101812.28;5054383;28;20242;-73
2021/12/13 10:05:46;;;;;;;149.67;11.03;;;;;;;11.10;81.73;101813.41;5055960;28;20210;-73
2021/12/13 10:08:16;;;;;;;295.53;15.17;;;;;;;10.55;83.75;101816.41;5038025;28;20159;-73
2021/12/13 10:10:48;;;;;;;51.63;8.00;;;;;;;11.24;81.73;101816.41;5055028;28;20172;-74
2021/12/13 10:13:19;;;;;;;164.83;10.13;;;;;;;11.14;82.53;101815.88;5055210;28;20699;-73
2021/12/13 10:15:54;;;;;;;117.63;11.87;;;;;;;11.23;82.37;101826.22;5056238;28;20660;-73
2021/12/13 10:18:24;;;;;;;113.03;11.07;;;;;;;11.18;82.37;101816.66;5056339;28;20167;-74
2021/12/13 10:20:59;;;;;;;53.83;8.83;;;;;;;11.24;81.52;101813.75;5055460;28;20686;-74
2021/12/13 10:23:32;;;;;;;51.27;9.33;;;;;;;10.92;81.56;101802.53;5055837;28;20270;-73
2021/12/13 10:26:00;;;;;;;320.80;16.93;;;;;;;11.04;81.77;101797.63;5055154;28;20207;-73
2021/12/13 10:28:29;;;;;;;197.10;13.60;;;;;;;11.40;81.56;101820.19;5055363;28;20180;-75
2021/12/13 10:31:01;;;;;;;21.23;8.33;;;;;;;11.71;81.21;101819.81;5056825;28;20179;-75
2021/12/13 10:33:28;;;;;;;24.93;8.10;;;;;;;11.82;80.90;101825.59;5057189;28;20207;-75
2021/12/13 10:35:55;;;;;;;17.97;8.53;;;;;;;11.87;80.96;101810.22;5055735;28;20207;-73
2021/12/13 10:38:28;;;;;;;109.57;11.23;;;;;;;11.61;81.10;101809.56;5055661;28;20265;-73
2021/12/13 10:41:00;;;;;;;75.50;10.77;;;;;;;11.36;81.32;101790.97;5055740;28;20191;-74
2021/12/13 10:43:38;;;;;;;24.40;8.13;;;;;;;11.93;81.38;101821.63;5037726;28;20167;-74
2021/12/13 10:46:11;;;;;;;34.33;9.60;;;;;;;11.45;81.25;101788.78;5055655;28;20249;-75
2021/12/13 10:48:44;;;;;;;56.43;8.47;;;;;;;11.30;81.06;101784.09;5054609;28;20173;-73
2021/12/13 10:51:17;;;;;;;36.40;8.30;;;;;;;11.81;80.96;101801.59;5055109;28;20191;-75
2021/12/13 10:53:44;;;;;;;146.80;11.53;;;;;;;11.75;80.88;101802.69;5056143;28;20171;-74
2021/12/13 10:56:14;;;;;;;28.07;7.20;;;;;;;11.81;81.22;101818.50;5037506;28;20249;-74
2021/12/13 10:58:43;;;;;;;22.83;7.27;;;;;;;11.67;81.27;101807.50;5054142;28;20247;-75
2021/12/13 11:01:28;;;;;;;13.20;6.80;;;;;;;11.51;81.55;101806.38;5053836;28;20197;-74
2021/12/13 11:03:55;;;;;;;13.57;6.73;;;;;;;11.75;81.06;101820.53;5054783;28;20163;-73
2021/12/13 11:06:21;;;;;;;14.27;6.73;;;;;;;11.63;81.15;101823.75;5054294;28;20202;-73
2021/12/13 11:08:46;;;;;;;14.13;6.63;;;;;;;11.68;80.93;101814.59;5053919;28;20251;-73
2021/12/13 11:11:20;;;;;;;12.43;6.30;;;;;;;11.61;82.20;101837.16;5053711;28;20631;-75
2021/12/13 11:13:46;;;;;;;12.20;5.83;;;;;;;12.02;81.37;101848.84;5054324;28;20242;-73
2021/12/13 11:16:15;;;;;;;15.20;6.10;;;;;;;11.91;81.59;101845.75;5054495;28;20195;-74
2021/12/13 11:18:41;;;;;;;14.93;7.13;;;;;;;11.83;80.80;101824.66;5038034;28;20175;-73
2021/12/13 11:21:10;;;;;;;15.60;6.37;;;;;;;11.68;81.25;101821.75;5054567;28;20195;-75
2021/12/13 11:23:36;;;;;;;59.10;6.73;;;;;;;12.00;80.65;101828.44;5055245;28;20171;-74
2021/12/13 11:26:06;;;;;;;38.53;7.43;;;;;;;11.97;80.74;101824.09;5054527;28;20549;-75
2021/12/13 11:28:33;;;;;;;61.07;7.87;;;;;;;11.71;81.01;101824.28;5061662;28;20178;-76
2021/12/13 11:31:09;;;;;;;33.33;6.80;;;;;;;12.01;81.21;101831.03;5059559;28;20185;-73
2021/12/13 11:33:37;;;;;;;11.17;6.23;;;;;;;12.23;80.71;101844.34;5054216;28;20246;-74
2021/12/13 11:36:27;;;;;;;76.87;8.30;;;;;;;12.23;80.57;101824.75;5056338;28;20357;-73
2021/12/13 11:39:20;;;;;;;34.13;7.40;;;;;;;12.34;80.11;101825.16;5055396;28;20563;-73
2021/12/13 11:42:10;;;;;;;45.90;6.97;;;;;;;12.22;80.52;101823.88;5056608;28;20220;-73
2021/12/13 11:44:54;;;;;;;9.03;4.77;;;;;;;12.62;80.15;101830.13;5055193;28;20164;-74
2021/12/13 11:47:51;;;;;;;208.23;12.73;;;;;;;12.44;80.43;101831.84;5053182;28;20690;-74